Kezdőlap
METAR-TAF:

METAR-TAF

Repülőterek :

Kugaaruk, Nunavut, Kanada

földrajzi szélesség: 68-32N, földrajzi hosszúság: 089-49W, magasság: 15 m

Jelenlegi meteorológiai megfigyelések

A jelentés 14 órával és 22 perccel ezelõtt készült, 23:00 UTC
Kelet-északkeleti szél 8 kt
Hőmérséklet 2°C
Páratartalom 93%
Légköri nyomás 1001 hPa
Látótávolság: 16.1 km
Szakadozott felhőzet 900 lábon
enyhe esõ

METAR: CYBB 182300Z 06008KT 10SM -RA BKN009 02/01 A2956 RMK ST6 SLP014

Idő: 07:22 (13:22 UTC)

Előrejelzés

A jelentés 18 órával és 43 perccel ezelõtt készült, 18:39 UTC
Az előrejelzés 18-én 19 óra UTC és 18-én 23 óra UTC között érvényes
Keleti szél 10 kt
Látótávolság: 4.8 km
Borult 500 lábon
enyhe havazás
18-én 19 óra UTC és 18-én 23 óra UTC között ideiglenes
Látótávolság: 9.7 km
Borult 1000 lábon
enyhe esõ, hó

TAF: CYBB 181839Z 1819/1823 08010KT 3SM -SN OVC005 TEMPO 1819/1823 6SM -RASN OVC010 RMK NXT FCST WILL BE ISSUED AT 191545Z

Meteorológiai megfigyelések és előrejelzések több, mint 4000 repülőtéren (METAR és TAF jelentéseket).

A térképen piros és sárga pontok jelzik az elérhető meteorológiai állomásokat.

Mozgassa az egeret a pont fölött, hogy megjelenjen az állomás neve.

Azután kattintson az időjárási megfigyelések és előrejelzések megtekintéséhez.

A térkép megváltoztatása: kattintson a fekete keresztel jelölt zöld gombra ráközelítéshez, a vonallal jelölt zöld gombra távolításhoz, vagy a zöld nyilakra a szomszédos térképek eléréséhez.


METAR-TAF: